Time;durP1;ratioP1;P1;durP2;ratioP2;P2;SDS_P1;SDS_P2;PMS_P1;PMS_P2;Temp;Humidity;BMP_temperature;BMP_pressure;BME280_temperature;BME280_humidity;BME280_pressure;Samples;Min_cycle;Max_cycle;Signal;HPM_P1;HPM_P2
2023/04/15 00:00:07;;;;;;;8.60;3.57;;;14.00;99.90;;;;;;5090864;28;20252;-77
2023/04/15 00:02:33;;;;;;;4.77;3.30;;;13.80;99.90;;;;;;5093205;28;20239;-76
2023/04/15 00:04:59;;;;;;;7.73;3.67;;;13.80;99.90;;;;;;5092010;28;20616;-76
2023/04/15 00:07:25;;;;;;;8.90;3.83;;;13.70;99.90;;;;;;5091801;28;20535;-76
2023/04/15 00:09:53;;;;;;;6.40;3.70;;;13.70;99.90;;;;;;5091635;28;20169;-76
2023/04/15 00:12:20;;;;;;;6.47;3.77;;;13.70;99.90;;;;;;5091755;28;20171;-76
2023/04/15 00:14:47;;;;;;;5.83;3.50;;;13.60;99.90;;;;;;5091389;28;20159;-76
2023/04/15 00:17:12;;;;;;;8.97;3.57;;;13.50;99.90;;;;;;5092859;28;20158;-76
2023/04/15 00:19:39;;;;;;;4.30;2.80;;;13.40;99.90;;;;;;5091476;28;20173;-76
2023/04/15 00:22:05;;;;;;;5.37;3.07;;;13.30;99.90;;;;;;5092624;28;20178;-76
2023/04/15 00:24:31;;;;;;;4.87;3.10;;;13.30;99.90;;;;;;5092586;28;20228;-76
2023/04/15 00:26:57;;;;;;;4.33;3.00;;;13.40;99.90;;;;;;5092405;28;20178;-77
2023/04/15 00:29:23;;;;;;;5.33;2.90;;;13.40;99.90;;;;;;5091041;28;20173;-77
2023/04/15 00:31:49;;;;;;;5.60;2.90;;;13.30;99.90;;;;;;5092687;28;20166;-77
2023/04/15 00:34:14;;;;;;;3.93;2.77;;;13.20;99.90;;;;;;5092477;28;20515;-76
2023/04/15 00:36:40;;;;;;;3.23;2.63;;;13.20;99.90;;;;;;5092653;28;20550;-76
2023/04/15 00:39:05;;;;;;;5.77;3.27;;;13.40;99.90;;;;;;5091153;28;20166;-76
2023/04/15 00:41:32;;;;;;;6.27;3.80;;;13.40;99.90;;;;;;5091111;28;20162;-76
2023/04/15 00:43:59;;;;;;;4.70;3.10;;;13.00;99.90;;;;;;5092119;28;20598;-77
2023/04/15 00:46:27;;;;;;;5.97;3.40;;;12.90;99.90;;;;;;5092513;28;20162;-77
2023/04/15 00:48:53;;;;;;;4.10;2.90;;;12.80;99.90;;;;;;5092323;28;20212;-77
2023/04/15 00:51:19;;;;;;;3.77;2.33;;;12.90;99.90;;;;;;5091403;28;20193;-76
2023/04/15 00:53:45;;;;;;;6.57;2.43;;;12.70;99.90;;;;;;5091183;28;20231;-76
2023/04/15 00:56:11;;;;;;;4.80;1.67;;;12.70;99.90;;;;;;5091115;28;20264;-77
2023/04/15 00:58:36;;;;;;;5.00;1.70;;;12.60;99.90;;;;;;5092269;28;20149;-77
2023/04/15 01:01:03;;;;;;;2.77;1.60;;;12.60;99.90;;;;;;5091120;28;20215;-76
2023/04/15 01:03:29;;;;;;;4.07;1.87;;;12.50;99.90;;;;;;5092555;28;20194;-77
2023/04/15 01:05:57;;;;;;;3.93;2.50;;;12.50;99.90;;;;;;5090980;28;20174;-76
2023/04/15 01:08:29;;;;;;;3.30;2.00;;;12.50;99.90;;;;;;5091146;28;20160;-77
2023/04/15 01:10:57;;;;;;;2.73;1.97;;;12.50;99.90;;;;;;5094057;28;20160;-77
2023/04/15 01:13:23;;;;;;;2.53;1.80;;;12.40;99.90;;;;;;5096328;28;20166;-77
2023/04/15 01:15:51;;;;;;;3.47;1.70;;;12.50;99.90;;;;;;5095073;28;20173;-77
2023/04/15 01:18:17;;;;;;;2.93;1.60;;;12.60;99.90;;;;;;5096178;28;20143;-77
2023/04/15 01:20:43;;;;;;;2.73;1.90;;;12.70;99.90;;;;;;5094805;28;20170;-76
2023/04/15 01:23:09;;;;;;;2.10;1.57;;;12.60;99.90;;;;;;5094587;28;20207;-77
2023/04/15 01:25:35;;;;;;;3.13;1.80;;;12.60;99.90;;;;;;5094578;28;20495;-77
2023/04/15 01:28:02;;;;;;;2.93;1.50;;;12.70;99.90;;;;;;5094457;28;20281;-77
2023/04/15 01:30:28;;;;;;;2.80;1.60;;;12.60;99.90;;;;;;5094574;28;20155;-77
2023/04/15 01:32:53;;;;;;;3.73;1.87;;;12.70;99.90;;;;;;5096250;28;20169;-77
2023/04/15 01:35:20;;;;;;;2.47;1.70;;;12.60;99.90;;;;;;5094502;28;20182;-77
2023/04/15 01:37:46;;;;;;;5.43;1.90;;;12.50;99.90;;;;;;5094485;28;20170;-77
2023/04/15 01:40:12;;;;;;;2.00;1.43;;;12.50;99.90;;;;;;5095584;28;20151;-76
2023/04/15 01:42:38;;;;;;;3.00;2.07;;;12.50;99.90;;;;;;5095892;28;20179;-77
2023/04/15 01:45:05;;;;;;;3.63;2.00;;;12.40;99.90;;;;;;5094357;28;20241;-77
2023/04/15 01:47:31;;;;;;;3.00;1.90;;;12.50;99.90;;;;;;5095755;28;20250;-77
2023/04/15 01:49:56;;;;;;;3.93;2.33;;;12.40;99.90;;;;;;5095496;28;20186;-77
2023/04/15 01:52:22;;;;;;;3.67;2.20;;;12.50;99.90;;;;;;5094154;28;20718;-76
2023/04/15 01:54:48;;;;;;;5.37;3.27;;;12.50;99.90;;;;;;5095120;28;20170;-76
2023/04/15 01:57:13;;;;;;;4.83;2.87;;;12.30;99.90;;;;;;5095273;28;20169;-76
2023/04/15 01:59:39;;;;;;;8.87;3.90;;;12.20;99.90;;;;;;5095301;28;20166;-77
2023/04/15 02:02:05;;;;;;;8.87;4.03;;;12.20;99.90;;;;;;5093895;28;20257;-76
2023/04/15 02:04:31;;;;;;;10.47;5.47;;;12.20;99.90;;;;;;5095259;28;20150;-76
2023/04/15 02:06:57;;;;;;;12.77;5.77;;;12.10;99.90;;;;;;5094084;28;20157;-77
2023/04/15 02:09:22;;;;;;;13.20;6.30;;;12.00;99.90;;;;;;5094904;28;20155;-77
2023/04/15 02:11:48;;;;;;;14.37;6.07;;;12.00;99.90;;;;;;5093981;28;20174;-77
2023/04/15 02:14:13;;;;;;;12.17;6.27;;;12.10;99.90;;;;;;5095133;28;20167;-77
2023/04/15 02:16:39;;;;;;;11.97;6.23;;;12.20;99.90;;;;;;5093930;28;20202;-77
2023/04/15 02:19:05;;;;;;;12.60;6.00;;;12.20;99.90;;;;;;5093576;28;20525;-77
2023/04/15 02:21:30;;;;;;;12.20;6.27;;;12.10;99.90;;;;;;5093026;28;20214;-77
2023/04/15 02:23:56;;;;;;;15.67;7.67;;;12.20;99.90;;;;;;5094573;28;20215;-75
2023/04/15 02:26:22;;;;;;;15.13;7.80;;;12.20;99.90;;;;;;5094717;28;20523;-75
2023/04/15 02:28:50;;;;;;;17.97;7.50;;;12.10;99.90;;;;;;5093508;28;20631;-76
2023/04/15 02:31:16;;;;;;;14.00;7.87;;;12.20;99.90;;;;;;5093303;28;20260;-76
2023/04/15 02:33:41;;;;;;;18.33;8.50;;;12.20;99.90;;;;;;5094507;28;20174;-76
2023/04/15 02:36:08;;;;;;;15.70;7.40;;;12.20;99.90;;;;;;5094671;28;20159;-78
2023/04/15 02:38:34;;;;;;;23.13;8.47;;;12.30;99.90;;;;;;5093453;28;20235;-78
2023/04/15 02:41:02;;;;;;;18.67;9.83;;;12.40;99.90;;;;;;5093287;28;20589;-76
2023/04/15 02:43:27;;;;;;;17.90;8.83;;;12.60;99.90;;;;;;5093334;28;20284;-77
2023/04/15 02:45:53;;;;;;;19.90;9.00;;;12.50;99.90;;;;;;5093218;28;20201;-76
2023/04/15 02:48:19;;;;;;;21.13;10.10;;;12.40;99.90;;;;;;5093317;28;20175;-76
2023/04/15 02:50:46;;;;;;;24.00;10.43;;;12.30;99.90;;;;;;5094487;28;20161;-77
2023/04/15 02:53:13;;;;;;;20.73;10.83;;;12.30;99.90;;;;;;5093111;28;20192;-76
2023/04/15 02:55:39;;;;;;;20.47;9.57;;;12.20;99.90;;;;;;5092921;28;20178;-76
2023/04/15 02:58:06;;;;;;;27.33;11.27;;;12.10;99.90;;;;;;5093246;28;20162;-76
2023/04/15 03:00:32;;;;;;;22.83;10.80;;;12.20;99.90;;;;;;5092962;28;20420;-77
2023/04/15 03:03:01;;;;;;;24.23;10.40;;;12.20;99.90;;;;;;5093017;28;20272;-77
2023/04/15 03:05:27;;;;;;;21.23;10.00;;;12.30;99.90;;;;;;5094017;28;20243;-77
2023/04/15 03:07:52;;;;;;;25.20;11.63;;;12.30;99.90;;;;;;5093776;28;20202;-76
2023/04/15 03:10:18;;;;;;;19.83;9.77;;;12.30;99.90;;;;;;5093887;28;20169;-76
2023/04/15 03:12:44;;;;;;;22.60;10.10;;;12.20;99.90;;;;;;5092953;28;20249;-77
2023/04/15 03:15:10;;;;;;;21.47;10.50;;;12.10;99.90;;;;;;5092606;28;20205;-77
2023/04/15 03:17:35;;;;;;;24.90;10.53;;;12.10;99.90;;;;;;5092718;28;20171;-78
2023/04/15 03:20:03;;;;;;;26.30;11.17;;;12.00;99.90;;;;;;5093936;28;20154;-78
2023/04/15 03:22:32;;;;;;;20.00;9.83;;;11.90;99.90;;;;;;5093731;28;20205;-76
2023/04/15 03:24:58;;;;;;;20.47;9.30;;;11.90;99.90;;;;;;5093907;28;20266;-76
2023/04/15 03:27:24;;;;;;;16.03;9.50;;;11.90;99.90;;;;;;5092423;28;20538;-76
2023/04/15 03:29:49;;;;;;;18.53;8.87;;;11.90;99.90;;;;;;5093986;28;20160;-76
2023/04/15 03:32:15;;;;;;;19.50;8.77;;;11.80;99.90;;;;;;5094486;28;20163;-76
2023/04/15 03:34:41;;;;;;;13.43;7.27;;;11.80;99.90;;;;;;5092381;28;20208;-78
2023/04/15 03:37:07;;;;;;;13.03;7.67;;;11.60;99.90;;;;;;5091913;28;20227;-78
2023/04/15 03:39:33;;;;;;;16.43;8.17;;;11.70;99.90;;;;;;5092213;28;20527;-76
2023/04/15 03:42:00;;;;;;;12.87;7.27;;;11.70;99.90;;;;;;5092038;28;20219;-78
2023/04/15 03:44:26;;;;;;;12.97;8.63;;;11.60;99.90;;;;;;5093610;28;20166;-77
2023/04/15 03:46:52;;;;;;;12.07;7.50;;;11.50;99.90;;;;;;5093347;28;20157;-78
2023/04/15 03:49:18;;;;;;;10.93;6.70;;;11.60;99.90;;;;;;5093509;28;20182;-77
2023/04/15 03:51:45;;;;;;;9.27;6.50;;;11.60;99.90;;;;;;5093215;28;20516;-77
2023/04/15 03:54:14;;;;;;;10.53;6.67;;;11.50;99.90;;;;;;5092362;28;20169;-77
2023/04/15 03:56:40;;;;;;;9.57;6.53;;;11.50;99.90;;;;;;5092226;28;20231;-78
2023/04/15 03:59:06;;;;;;;9.20;6.27;;;11.50;99.90;;;;;;5091903;28;20546;-76
2023/04/15 04:01:31;;;;;;;9.43;6.37;;;11.40;99.90;;;;;;5093317;28;20170;-75
2023/04/15 04:03:57;;;;;;;9.93;6.83;;;11.30;99.90;;;;;;5092101;28;20205;-77
2023/04/15 04:06:23;;;;;;;10.53;6.87;;;11.30;99.90;;;;;;5091627;28;20177;-77
2023/04/15 04:08:48;;;;;;;9.40;5.87;;;11.40;99.90;;;;;;5093095;28;20174;-77
2023/04/15 04:11:14;;;;;;;15.03;6.90;;;11.40;99.90;;;;;;5092912;28;20171;-76
2023/04/15 04:13:40;;;;;;;9.63;6.77;;;11.40;99.90;;;;;;5092904;28;20634;-76
2023/04/15 04:16:05;;;;;;;10.30;6.43;;;11.40;99.90;;;;;;5091676;28;20169;-76
2023/04/15 04:18:31;;;;;;;11.70;7.30;;;11.40;99.90;;;;;;5091627;28;20165;-75
2023/04/15 04:20:57;;;;;;;8.80;6.07;;;11.40;99.90;;;;;;5092822;28;20596;-77
2023/04/15 04:23:24;;;;;;;11.87;6.70;;;11.40;99.90;;;;;;5091297;28;20241;-77
2023/04/15 04:25:51;;;;;;;11.63;6.50;;;11.50;99.90;;;;;;5091552;28;20203;-76
2023/04/15 04:28:17;;;;;;;9.47;6.77;;;11.50;99.90;;;;;;5091441;28;20178;-77
2023/04/15 04:30:42;;;;;;;11.07;6.53;;;11.40;99.90;;;;;;5091519;28;20654;-77
2023/04/15 04:33:08;;;;;;;9.77;6.20;;;11.40;99.90;;;;;;5091391;28;20310;-76
2023/04/15 04:35:36;;;;;;;11.23;6.57;;;11.40;99.90;;;;;;5092487;28;20542;-75
2023/04/15 04:38:02;;;;;;;9.03;5.97;;;11.50;99.90;;;;;;5091184;28;20178;-76
2023/04/15 04:40:28;;;;;;;8.63;5.90;;;11.60;99.90;;;;;;5091415;28;20184;-75
2023/04/15 04:42:55;;;;;;;8.00;5.80;;;11.50;99.90;;;;;;5091075;28;20191;-76
2023/04/15 04:45:20;;;;;;;11.17;6.53;;;11.30;99.90;;;;;;5092090;28;20537;-76
2023/04/15 04:47:46;;;;;;;8.13;6.50;;;11.20;99.90;;;;;;5091143;28;20201;-75
2023/04/15 04:50:12;;;;;;;10.27;6.30;;;11.20;99.90;;;;;;5092310;28;20170;-76
2023/04/15 04:52:38;;;;;;;10.63;6.03;;;11.10;99.90;;;;;;5092268;28;20232;-75
2023/04/15 04:55:04;;;;;;;10.13;6.27;;;11.20;99.90;;;;;;5091078;28;20177;-77
2023/04/15 04:57:30;;;;;;;9.77;6.00;;;11.40;99.90;;;;;;5092515;28;20206;-76
2023/04/15 04:59:56;;;;;;;12.33;6.50;;;11.40;99.90;;;;;;5092457;28;20179;-77
2023/04/15 05:02:22;;;;;;;8.70;5.73;;;11.50;99.90;;;;;;5090971;28;20189;-76
2023/04/15 05:04:53;;;;;;;11.17;5.80;;;11.40;99.90;;;;;;5090906;28;20218;-77
2023/04/15 05:07:19;;;;;;;10.37;6.40;;;11.40;99.90;;;;;;5091049;28;20199;-77
2023/04/15 05:09:45;;;;;;;12.03;6.03;;;11.30;99.90;;;;;;5092359;28;20150;-77
2023/04/15 05:12:13;;;;;;;10.53;6.17;;;11.20;99.90;;;;;;5092269;28;20245;-79
2023/04/15 05:14:40;;;;;;;9.37;6.57;;;11.20;99.90;;;;;;5090865;28;20170;-79
2023/04/15 05:17:07;;;;;;;8.87;6.23;;;11.20;99.90;;;;;;5091156;28;20170;-79
2023/04/15 05:19:33;;;;;;;11.50;5.90;;;11.30;99.90;;;;;;5090721;28;20156;-80
2023/04/15 05:21:59;;;;;;;13.10;6.40;;;11.40;99.90;;;;;;5090746;28;20263;-79
2023/04/15 05:24:26;;;;;;;10.70;6.17;;;11.30;99.90;;;;;;5092136;28;20172;-79
2023/04/15 05:26:51;;;;;;;10.27;6.13;;;11.40;99.90;;;;;;5090766;28;20185;-80
2023/04/15 05:29:18;;;;;;;12.37;6.70;;;11.40;99.90;;;;;;5090725;28;20167;-80
2023/04/15 05:31:44;;;;;;;11.80;6.07;;;11.30;99.90;;;;;;5090891;28;20168;-79
2023/04/15 05:34:11;;;;;;;13.77;6.23;;;11.30;99.90;;;;;;5090793;28;20635;-79
2023/04/15 05:36:56;;;;;;;10.60;6.07;;;11.30;99.90;;;;;;5090801;28;20162;-79
2023/04/15 05:39:34;;;;;;;16.00;6.80;;;11.20;99.90;;;;;;5090995;28;20270;-79
2023/04/15 05:42:12;;;;;;;10.40;5.80;;;11.10;99.90;;;;;;5090938;28;20191;-79
2023/04/15 05:44:55;;;;;;;12.30;6.70;;;11.00;99.90;;;;;;5091762;28;20170;-79
2023/04/15 05:47:23;;;;;;;9.30;5.70;;;11.00;99.90;;;;;;5092155;28;20537;-78
2023/04/15 05:49:49;;;;;;;10.23;6.10;;;11.20;99.90;;;;;;5090777;28;20205;-79
2023/04/15 05:52:18;;;;;;;9.00;6.50;;;11.10;99.90;;;;;;5091134;28;20224;-79
2023/04/15 05:54:46;;;;;;;11.50;6.47;;;11.10;99.90;;;;;;5091073;28;20533;-79
2023/04/15 05:57:22;;;;;;;8.93;6.17;;;11.10;99.90;;;;;;5091777;28;20265;-78
2023/04/15 05:59:51;;;;;;;9.93;6.47;;;11.00;99.90;;;;;;5094763;28;20173;-79
2023/04/15 06:02:20;;;;;;;11.47;6.23;;;11.10;99.90;;;;;;5094285;28;20187;-80
2023/04/15 06:04:49;;;;;;;30.50;20.40;;;11.10;99.90;;;;;;5095973;28;20197;-79
2023/04/15 06:07:17;;;;;;;11.90;6.13;;;11.20;99.90;;;;;;5095915;28;20231;-79
2023/04/15 06:09:49;;;;;;;9.43;6.97;;;11.20;99.90;;;;;;5094573;28;20171;-79
2023/04/15 06:12:17;;;;;;;11.67;6.37;;;11.10;99.90;;;;;;5094488;28;20202;-79
2023/04/15 06:14:46;;;;;;;9.50;5.57;;;11.30;99.90;;;;;;5094654;28;20177;-79
2023/04/15 06:17:13;;;;;;;13.63;6.40;;;11.30;99.90;;;;;;5094152;28;20177;-79
2023/04/15 06:19:40;;;;;;;11.50;5.57;;;11.50;99.90;;;;;;5095752;28;20233;-79
2023/04/15 06:22:06;;;;;;;9.37;6.50;;;11.50;99.90;;;;;;5092354;28;20195;-78
2023/04/15 06:24:32;;;;;;;9.03;6.00;;;11.60;99.90;;;;;;5095631;28;20219;-79
2023/04/15 06:26:58;;;;;;;11.47;6.60;;;11.80;99.90;;;;;;5077127;28;20252;-79
2023/04/15 06:29:40;;;;;;;13.17;5.97;;;11.70;99.90;;;;;;5094583;28;20157;-79
2023/04/15 06:32:18;;;;;;;15.67;6.33;;;11.70;99.90;;;;;;5076842;28;20227;-79
2023/04/15 06:34:44;;;;;;;10.00;5.83;;;11.60;99.90;;;;;;5095183;28;20160;-78
2023/04/15 06:37:26;;;;;;;9.20;6.03;;;11.60;99.90;;;;;;5077408;28;20174;-77
2023/04/15 06:40:08;;;;;;;10.40;6.40;;;11.70;99.90;;;;;;5077194;28;20159;-78
2023/04/15 06:42:43;;;;;;;10.50;5.73;;;11.70;99.90;;;;;;5076907;28;20183;-80
2023/04/15 06:45:16;;;;;;;10.47;5.83;;;11.70;99.90;;;;;;5076876;28;20166;-78
2023/04/15 06:47:58;;;;;;;9.20;5.60;;;11.90;99.90;;;;;;5076991;28;20166;-78
2023/04/15 06:50:27;;;;;;;11.73;5.80;;;12.10;99.90;;;;;;5095262;28;20682;-78
2023/04/15 06:52:56;;;;;;;8.47;5.60;;;12.20;99.90;;;;;;5094972;28;20219;-75
2023/04/15 06:55:22;;;;;;;6.90;5.07;;;12.20;99.90;;;;;;5076743;28;20185;-76
2023/04/15 06:57:48;;;;;;;10.10;5.37;;;12.20;99.90;;;;;;5095064;28;20169;-75
2023/04/15 07:00:14;;;;;;;15.80;6.50;;;12.20;99.90;;;;;;5095181;28;20542;-76
2023/04/15 07:02:40;;;;;;;8.93;5.37;;;12.30;99.90;;;;;;5095121;28;20201;-75
2023/04/15 07:05:06;;;;;;;9.40;5.67;;;12.40;99.90;;;;;;5094815;28;20163;-76
2023/04/15 07:07:32;;;;;;;12.53;5.00;;;12.50;99.90;;;;;;5094979;28;20182;-76
2023/04/15 07:10:00;;;;;;;8.93;5.80;;;12.60;99.90;;;;;;5094441;28;20218;-75
2023/04/15 07:12:26;;;;;;;9.57;5.37;;;12.70;99.90;;;;;;5076384;28;20744;-76
2023/04/15 07:14:54;;;;;;;10.93;5.63;;;12.70;99.90;;;;;;5094565;28;20242;-76
2023/04/15 07:17:21;;;;;;;7.67;6.07;;;12.80;99.90;;;;;;5076491;28;20541;-75
2023/04/15 07:19:47;;;;;;;10.13;6.37;;;12.90;99.90;;;;;;5094388;28;20166;-75
2023/04/15 07:22:12;;;;;;;11.33;6.00;;;13.00;99.90;;;;;;5094441;28;20674;-75
2023/04/15 07:24:39;;;;;;;9.90;6.40;;;13.00;99.90;;;;;;5094204;28;20151;-77
2023/04/15 07:27:04;;;;;;;9.80;6.30;;;12.90;99.90;;;;;;5075998;28;20172;-76
2023/04/15 07:29:30;;;;;;;10.43;6.37;;;12.80;99.90;;;;;;5094003;28;20151;-75
2023/04/15 07:31:56;;;;;;;13.23;6.70;;;12.70;99.90;;;;;;5075809;28;20177;-75
2023/04/15 07:34:23;;;;;;;11.13;6.53;;;12.70;99.90;;;;;;5093931;28;20170;-75
2023/04/15 07:36:51;;;;;;;13.37;7.17;;;12.50;99.90;;;;;;5075920;28;20171;-75
2023/04/15 07:39:17;;;;;;;11.10;7.40;;;12.40;99.90;;;;;;5076162;28;20170;-75
2023/04/15 07:41:45;;;;;;;10.93;6.90;;;12.40;99.90;;;;;;5094018;28;20170;-76
2023/04/15 07:44:11;;;;;;;11.67;6.57;;;12.30;99.90;;;;;;5076250;28;20182;-76
2023/04/15 07:46:37;;;;;;;11.97;7.53;;;12.10;99.90;;;;;;5075571;28;20170;-75
2023/04/15 07:49:02;;;;;;;11.23;7.50;;;12.10;99.90;;;;;;5094052;28;20174;-76
2023/04/15 07:51:29;;;;;;;12.63;7.67;;;12.20;99.90;;;;;;5093953;28;20631;-76
2023/04/15 07:53:55;;;;;;;15.17;8.20;;;12.40;99.90;;;;;;5093121;28;20175;-75
2023/04/15 07:56:20;;;;;;;14.20;8.13;;;12.50;99.90;;;;;;5093475;28;20169;-76
2023/04/15 07:58:46;;;;;;;12.90;8.30;;;12.60;99.90;;;;;;5093418;28;20185;-76
2023/04/15 08:01:12;;;;;;;14.93;8.70;;;12.50;99.90;;;;;;5075548;28;20157;-75
2023/04/15 08:03:39;;;;;;;11.80;8.27;;;12.50;99.90;;;;;;5093301;28;20213;-76
2023/04/15 08:06:06;;;;;;;15.87;9.07;;;12.50;99.90;;;;;;5093990;28;20257;-76
2023/04/15 08:08:34;;;;;;;13.30;9.50;;;12.40;99.90;;;;;;5075696;28;20605;-75
2023/04/15 08:11:00;;;;;;;13.67;8.73;;;12.40;99.90;;;;;;5075866;28;20262;-75
2023/04/15 08:13:26;;;;;;;13.97;9.27;;;12.40;99.90;;;;;;5093242;28;20238;-76
2023/04/15 08:16:15;;;;;;;13.43;8.67;;;12.50;99.90;;;;;;5093907;28;20188;-80
2023/04/15 08:19:02;;;;;;;13.50;9.10;;;12.50;99.90;;;;;;5093729;28;20167;-80
2023/04/15 08:21:48;;;;;;;12.03;8.97;;;12.50;99.90;;;;;;5074770;28;20160;-79
2023/04/15 08:24:17;;;;;;;13.60;9.17;;;12.60;99.90;;;;;;5075261;28;20229;-79
2023/04/15 08:26:46;;;;;;;12.63;10.10;;;12.60;99.90;;;;;;5075072;28;20181;-78
2023/04/15 08:29:26;;;;;;;13.33;10.50;;;12.60;99.90;;;;;;5075219;28;20249;-79
2023/04/15 08:31:53;;;;;;;13.83;8.90;;;12.70;99.90;;;;;;5075239;28;20671;-79
2023/04/15 08:34:22;;;;;;;16.50;10.37;;;12.80;99.90;;;;;;5075109;28;20611;-80
2023/04/15 08:36:57;;;;;;;13.67;9.67;;;13.00;99.90;;;;;;5075095;28;20257;-79
2023/04/15 08:39:23;;;;;;;12.53;9.77;;;13.10;99.90;;;;;;5076693;28;20239;-79
2023/04/15 08:42:02;;;;;;;11.80;9.83;;;13.30;99.90;;;;;;5094227;28;20616;-80
2023/04/15 08:44:34;;;;;;;14.80;9.27;;;13.40;99.90;;;;;;5093723;28;20170;-77
2023/04/15 08:47:16;;;;;;;18.03;9.87;;;13.40;99.90;;;;;;5075658;28;20178;-78
2023/04/15 08:49:44;;;;;;;12.67;9.17;;;13.60;99.90;;;;;;5076188;28;20184;-79
2023/04/15 08:52:13;;;;;;;15.63;9.40;;;13.90;99.90;;;;;;5075159;28;20548;-78
2023/04/15 08:54:47;;;;;;;13.47;9.63;;;14.20;99.90;;;;;;5074869;28;20174;-78
2023/04/15 08:57:28;;;;;;;12.53;9.13;;;14.30;99.90;;;;;;5075054;28;20207;-78
2023/04/15 08:59:59;;;;;;;13.97;9.10;;;14.50;99.90;;;;;;5075118;28;20198;-79
2023/04/15 09:02:28;;;;;;;15.00;9.40;;;14.50;99.90;;;;;;5074767;28;20190;-78
2023/04/15 09:04:57;;;;;;;16.60;9.53;;;14.70;99.90;;;;;;5074879;28;20564;-78
2023/04/15 09:07:26;;;;;;;16.93;10.90;;;14.90;99.90;;;;;;5074765;28;20177;-79
2023/04/15 09:09:57;;;;;;;12.83;9.43;;;15.20;99.90;;;;;;5074500;28;20171;-79
2023/04/15 09:12:46;;;;;;;12.30;9.07;;;15.40;99.90;;;;;;5092687;28;20164;-77
2023/04/15 09:15:13;;;;;;;11.03;7.40;;;15.40;99.90;;;;;;5074754;28;20516;-76
2023/04/15 09:17:44;;;;;;;12.20;7.23;;;15.30;99.90;;;;;;5075196;28;20163;-78
2023/04/15 09:20:14;;;;;;;13.07;7.03;;;15.40;99.90;;;;;;5074668;28;20176;-78
2023/04/15 09:22:54;;;;;;;10.77;5.83;;;15.60;99.90;;;;;;5074380;28;20577;-77
2023/04/15 09:25:27;;;;;;;7.97;5.33;;;15.80;99.90;;;;;;5092416;28;20182;-79
2023/04/15 09:28:23;;;;;;;10.23;5.87;;;15.80;99.30;;;;;;5074483;28;20171;-79
2023/04/15 09:30:56;;;;;;;8.83;5.77;;;15.90;98.90;;;;;;5074398;28;20538;-80
2023/04/15 09:33:26;;;;;;;8.73;6.07;;;15.90;99.50;;;;;;5078375;28;20179;-79
2023/04/15 09:36:06;;;;;;;9.33;5.80;;;15.70;99.10;;;;;;5078289;28;20174;-78
2023/04/15 09:38:57;;;;;;;8.93;4.77;;;15.80;99.20;;;;;;5096085;28;20219;-79
2023/04/15 09:41:28;;;;;;;9.10;4.63;;;15.80;98.00;;;;;;5078243;28;20163;-78
2023/04/15 09:43:56;;;;;;;8.03;5.20;;;15.80;97.60;;;;;;5077777;28;20281;-78
2023/04/15 09:46:42;;;;;;;7.40;5.10;;;15.70;97.00;;;;;;5078201;28;20677;-78
2023/04/15 09:49:09;;;;;;;6.93;5.33;;;15.60;97.70;;;;;;5096240;28;20147;-78
2023/04/15 09:51:37;;;;;;;10.07;4.77;;;15.50;97.60;;;;;;5096248;28;20151;-80
2023/04/15 09:54:03;;;;;;;7.93;5.03;;;15.60;98.10;;;;;;5077563;28;20170;-76
2023/04/15 09:56:37;;;;;;;6.83;5.00;;;15.50;98.30;;;;;;5077829;28;20154;-77
2023/04/15 09:59:04;;;;;;;12.90;5.40;;;15.50;98.60;;;;;;5078048;28;20166;-77
2023/04/15 10:01:31;;;;;;;10.67;5.13;;;15.60;99.10;;;;;;5077848;28;20522;-76
2023/04/15 10:04:03;;;;;;;6.57;4.57;;;15.80;98.50;;;;;;5077713;28;20178;-76
2023/04/15 10:06:34;;;;;;;8.07;5.77;;;15.70;98.40;;;;;;5078058;28;20156;-78
2023/04/15 10:09:01;;;;;;;8.70;6.00;;;15.60;98.70;;;;;;5077567;28;20162;-76
2023/04/15 10:11:28;;;;;;;7.33;5.63;;;15.50;98.70;;;;;;5077671;28;20173;-76
2023/04/15 10:13:57;;;;;;;10.10;5.83;;;15.50;98.60;;;;;;5077377;28;20208;-75
2023/04/15 10:16:30;;;;;;;8.50;5.50;;;15.70;98.20;;;;;;5077422;28;20542;-77
2023/04/15 10:18:57;;;;;;;8.90;5.73;;;15.90;98.20;;;;;;5095562;28;20151;-77
2023/04/15 10:21:29;;;;;;;7.47;6.03;;;16.00;98.00;;;;;;5077645;28;20617;-77
2023/04/15 10:23:56;;;;;;;11.60;6.60;;;15.90;98.60;;;;;;5076950;28;20251;-77
2023/04/15 10:26:37;;;;;;;9.70;6.13;;;15.90;98.90;;;;;;5077299;28;20174;-77
2023/04/15 10:29:06;;;;;;;7.13;4.70;;;16.00;99.20;;;;;;5077682;28;20207;-77
2023/04/15 10:31:39;;;;;;;8.00;4.03;;;16.00;97.00;;;;;;5095954;28;20156;-77
2023/04/15 10:34:12;;;;;;;8.90;4.33;;;16.10;96.60;;;;;;5095405;28;20191;-76
2023/04/15 10:36:45;;;;;;;6.97;4.43;;;16.10;96.50;;;;;;5095107;28;20526;-77
2023/04/15 10:39:39;;;;;;;7.27;3.73;;;16.20;96.60;;;;;;5095095;28;20498;-76
2023/04/15 10:42:07;;;;;;;4.80;3.90;;;16.20;96.40;;;;;;5076641;28;20196;-78
2023/04/15 10:44:37;;;;;;;5.33;3.27;;;16.00;96.50;;;;;;5076377;28;20178;-77
2023/04/15 10:47:14;;;;;;;5.07;2.77;;;16.00;95.30;;;;;;5095014;28;20203;-77
2023/04/15 10:49:49;;;;;;;3.80;2.77;;;16.10;94.20;;;;;;5076762;28;20169;-76
2023/04/15 10:52:21;;;;;;;4.20;3.37;;;16.20;93.70;;;;;;5076503;28;20172;-76
2023/04/15 10:55:09;;;;;;;7.63;2.60;;;16.50;94.50;;;;;;5094969;28;20631;-76
2023/04/15 10:57:42;;;;;;;3.57;2.30;;;16.70;93.40;;;;;;5076345;28;20172;-76
2023/04/15 11:00:49;;;;;;;2.50;2.00;;;17.00;91.70;;;;;;5076387;28;20229;-76
2023/04/15 11:03:54;;;;;;;3.03;2.23;;;17.00;89.20;;;;;;5076527;28;20183;-77
2023/04/15 11:06:42;;;;;;;3.20;2.40;;;17.30;88.40;;;;;;5076139;28;20179;-76
2023/04/15 11:09:45;;;;;;;3.70;2.40;;;17.30;89.20;;;;;;5076359;28;20181;-76
2023/04/15 11:12:17;;;;;;;7.47;2.73;;;17.30;89.00;;;;;;5076295;28;20169;-75
2023/04/15 11:14:50;;;;;;;4.87;3.57;;;17.50;88.10;;;;;;5076600;28;20167;-76
2023/04/15 11:17:28;;;;;;;5.10;3.50;;;17.70;88.30;;;;;;5076331;28;20181;-77
2023/04/15 11:19:54;;;;;;;6.63;3.40;;;17.60;89.40;;;;;;5075972;28;20192;-76
2023/04/15 11:22:23;;;;;;;6.17;3.63;;;17.40;89.40;;;;;;5094108;28;20942;-76
2023/04/15 11:24:49;;;;;;;4.23;2.97;;;17.50;87.70;;;;;;5076010;28;20192;-76
2023/04/15 11:27:29;;;;;;;5.53;3.07;;;17.50;86.90;;;;;;5094096;28;20191;-76
2023/04/15 11:30:23;;;;;;;3.87;2.47;;;17.90;86.90;;;;;;5076095;28;20177;-77
2023/04/15 11:32:52;;;;;;;4.07;2.50;;;18.30;86.80;;;;;;5075773;28;20177;-76
2023/04/15 11:35:19;;;;;;;3.90;2.17;;;18.60;81.70;;;;;;5075877;28;20231;-76
2023/04/15 11:38:04;;;;;;;4.13;2.40;;;18.50;82.70;;;;;;5094212;28;20158;-77
2023/04/15 11:40:34;;;;;;;2.40;2.00;;;18.40;78.00;;;;;;5075861;28;20169;-77
2023/04/15 11:43:30;;;;;;;2.63;1.80;;;17.90;76.70;;;;;;5075604;28;20281;-76
2023/04/15 11:45:58;;;;;;;1.33;1.23;;;17.90;73.10;;;;;;4988501;28;20234;-76
2023/04/15 11:48:34;;;;;;;2.77;1.90;;;18.30;70.50;;;;;;5075641;28;20162;-76
2023/04/15 11:51:05;;;;;;;3.43;2.30;;;18.60;72.00;;;;;;5075461;28;20284;-76
2023/04/15 11:53:48;;;;;;;3.43;2.70;;;18.80;75.00;;;;;;5075428;28;20165;-78
2023/04/15 11:56:25;;;;;;;3.83;3.17;;;19.30;74.70;;;;;;5075629;28;20167;-77
2023/04/15 11:58:58;;;;;;;5.80;2.93;;;19.00;75.10;;;;;;5093701;28;20657;-77
2023/04/15 12:01:38;;;;;;;3.13;2.43;;;19.30;74.60;;;;;;5075642;28;20250;-76
2023/04/15 12:04:12;;;;;;;4.40;2.80;;;19.60;73.30;;;;;;5075344;28;20190;-77
2023/04/15 12:06:40;;;;;;;3.63;2.90;;;19.80;74.30;;;;;;5075459;28;20700;-76
2023/04/15 12:09:12;;;;;;;4.77;3.00;;;20.10;74.50;;;;;;5075453;28;20165;-76
2023/04/15 12:11:42;;;;;;;3.43;2.27;;;20.80;71.80;;;;;;5093540;28;20233;-76
2023/04/15 12:14:30;;;;;;;2.70;2.07;;;20.40;67.40;;;;;;5075109;28;20166;-75
2023/04/15 12:17:13;;;;;;;3.63;2.50;;;20.40;67.60;;;;;;5075413;28;20192;-76
2023/04/15 12:19:44;;;;;;;4.57;3.03;;;20.30;66.90;;;;;;5093853;28;20167;-76
2023/04/15 12:22:27;;;;;;;4.30;2.80;;;20.70;68.90;;;;;;5093231;28;20190;-76
2023/04/15 12:24:57;;;;;;;2.87;2.10;;;21.70;68.60;;;;;;5093522;28;20217;-77
2023/04/15 12:27:36;;;;;;;3.13;2.10;;;20.90;64.60;;;;;;5075051;28;20218;-77
2023/04/15 12:30:19;;;;;;;2.73;1.90;;;20.80;65.80;;;;;;5075138;28;20174;-77
2023/04/15 12:32:48;;;;;;;3.77;2.10;;;20.70;66.00;;;;;;5075342;28;20193;-76
2023/04/15 12:35:15;;;;;;;2.97;1.63;;;21.50;65.00;;;;;;5075241;28;20231;-77
2023/04/15 12:37:41;;;;;;;7.67;1.87;;;21.50;58.30;;;;;;5074991;28;20166;-76
2023/04/15 12:40:25;;;;;;;2.73;1.83;;;20.90;58.50;;;;;;5093270;28;20178;-76
2023/04/15 12:42:58;;;;;;;3.20;2.17;;;20.90;59.70;;;;;;5093185;28;20303;-75
2023/04/15 12:45:27;;;;;;;4.37;1.70;;;21.10;60.90;;;;;;5075047;28;20167;-77
2023/04/15 12:47:54;;;;;;;4.13;1.90;;;21.50;59.50;;;;;;5092889;28;20196;-77
2023/04/15 12:50:19;;;;;;;2.83;1.60;;;21.60;58.00;;;;;;5075293;28;20170;-76
2023/04/15 12:52:48;;;;;;;2.87;1.80;;;22.00;55.90;;;;;;5074995;28;20189;-77